ARE4027 SKRG-SKBO
Flight info
| Callsign | ARE4027 |
|---|---|
| Flight time | 0h 45m |
| Altitude | 19000 |
| Route | ISVAT2B ISVAT ISVAT4E |
| Aircraft | A320/M-SDE3FGHIRWY/LB1 |
Departure
| Time | 2026-04-25 00:37 |
|---|---|
| Airport | Jose Maria Córdova International Airport (SKRG) |
Arrival
| Time | 2026-04-25 01:22 |
|---|---|
| Airport | El Dorado International Airport (SKBO) |
| Time | Latitude | Longitude | Altitude | Speed | Heading |
|---|---|---|---|---|---|
| 2026-04-25 00:10 | 6.17101 | -75.42686 | 6999 ft | 0 kts | 280° |
| 2026-04-25 00:28 | 6.17099 | -75.42677 | 6999 ft | 2 kts | 279° |
| 2026-04-25 00:29 | 6.17096 | -75.42661 | 6999 ft | 2 kts | 280° |
| 2026-04-25 00:29 | 6.17092 | -75.42647 | 6998 ft | 2 kts | 307° |
| 2026-04-25 00:29 | 6.17081 | -75.42636 | 6997 ft | 2 kts | 333° |
| 2026-04-25 00:29 | 6.17066 | -75.42632 | 6997 ft | 2 kts | 1° |
| 2026-04-25 00:30 | 6.17052 | -75.42636 | 6997 ft | 2 kts | 30° |
| 2026-04-25 00:30 | 6.17040 | -75.42645 | 6997 ft | 2 kts | 41° |
| 2026-04-25 00:30 | 6.17028 | -75.42654 | 6997 ft | 2 kts | 38° |
| 2026-04-25 00:30 | 6.17017 | -75.42664 | 6997 ft | 2 kts | 38° |
| 2026-04-25 00:31 | 6.17010 | -75.42670 | 6997 ft | 0 kts | 38° |
| 2026-04-25 00:32 | 6.17026 | -75.42655 | 6997 ft | 6 kts | 46° |
| 2026-04-25 00:33 | 6.17029 | -75.42596 | 6995 ft | 12 kts | 120° |
| 2026-04-25 00:33 | 6.16939 | -75.42532 | 6989 ft | 19 kts | 149° |
| 2026-04-25 00:33 | 6.16785 | -75.42484 | 6981 ft | 27 kts | 179° |
| 2026-04-25 00:33 | 6.16585 | -75.42481 | 6973 ft | 30 kts | 179° |
| 2026-04-25 00:34 | 6.16359 | -75.42479 | 6970 ft | 34 kts | 179° |
| 2026-04-25 00:34 | 6.16128 | -75.42477 | 6969 ft | 32 kts | 180° |
| 2026-04-25 00:34 | 6.15910 | -75.42476 | 6968 ft | 30 kts | 180° |
| 2026-04-25 00:34 | 6.15692 | -75.42475 | 6963 ft | 32 kts | 180° |
| 2026-04-25 00:35 | 6.15473 | -75.42475 | 6960 ft | 31 kts | 180° |
| 2026-04-25 00:35 | 6.15263 | -75.42474 | 6959 ft | 29 kts | 180° |
| 2026-04-25 00:35 | 6.15057 | -75.42472 | 6953 ft | 29 kts | 179° |
| 2026-04-25 00:35 | 6.14891 | -75.42413 | 6940 ft | 24 kts | 68° |
| 2026-04-25 00:36 | 6.14906 | -75.42348 | 6940 ft | 12 kts | 76° |
| 2026-04-25 00:36 | 6.15003 | -75.42303 | 6948 ft | 34 kts | 1° |
| 2026-04-25 00:36 | 6.15458 | -75.42306 | 6955 ft | 95 kts | 360° |
| 2026-04-25 00:36 | 6.16318 | -75.42309 | 6963 ft | 148 kts | 356° |
| 2026-04-25 00:37 | 6.17480 | -75.42316 | 7141 ft | 176 kts | 359° |
| 2026-04-25 00:37 | 6.18717 | -75.42323 | 7607 ft | 180 kts | 0° |
| 2026-04-25 00:37 | 6.19974 | -75.42322 | 8173 ft | 183 kts | 0° |
| 2026-04-25 00:37 | 6.21222 | -75.42191 | 8723 ft | 184 kts | 22° |
| 2026-04-25 00:38 | 6.22199 | -75.41339 | 9052 ft | 198 kts | 64° |
| 2026-04-25 00:38 | 6.22338 | -75.39926 | 9403 ft | 213 kts | 108° |
| 2026-04-25 00:38 | 6.21627 | -75.38635 | 9977 ft | 216 kts | 123° |
| 2026-04-25 00:38 | 6.20793 | -75.37373 | 10600 ft | 218 kts | 123° |
| 2026-04-25 00:39 | 6.19958 | -75.36091 | 11225 ft | 220 kts | 122° |
| 2026-04-25 00:39 | 6.19179 | -75.34869 | 11812 ft | 221 kts | 122° |
| 2026-04-25 00:39 | 6.18339 | -75.33535 | 12435 ft | 223 kts | 122° |
| 2026-04-25 00:39 | 6.17525 | -75.32245 | 13013 ft | 225 kts | 124° |
| 2026-04-25 00:40 | 6.16432 | -75.31109 | 13365 ft | 239 kts | 144° |
| 2026-04-25 00:40 | 6.14852 | -75.30405 | 13538 ft | 263 kts | 168° |
| 2026-04-25 00:40 | 6.12988 | -75.30087 | 13921 ft | 278 kts | 167° |
| 2026-04-25 00:40 | 6.11079 | -75.29521 | 14253 ft | 295 kts | 160° |
| 2026-04-25 00:41 | 6.09104 | -75.28791 | 14570 ft | 312 kts | 158° |
| 2026-04-25 00:41 | 6.07055 | -75.27982 | 14871 ft | 328 kts | 158° |
| 2026-04-25 00:41 | 6.04900 | -75.27107 | 15162 ft | 344 kts | 157° |
| 2026-04-25 00:41 | 6.02626 | -75.26176 | 15588 ft | 355 kts | 157° |
| 2026-04-25 00:42 | 6.00343 | -75.25237 | 16222 ft | 358 kts | 157° |
| 2026-04-25 00:42 | 5.98032 | -75.24285 | 16864 ft | 361 kts | 157° |
| 2026-04-25 00:42 | 5.95710 | -75.23327 | 17465 ft | 364 kts | 157° |
| 2026-04-25 00:42 | 5.93375 | -75.22363 | 18048 ft | 367 kts | 157° |
| 2026-04-25 00:43 | 5.90985 | -75.21377 | 18625 ft | 371 kts | 157° |
| 2026-04-25 00:43 | 5.88616 | -75.20399 | 19108 ft | 374 kts | 157° |
| 2026-04-25 00:43 | 5.86241 | -75.19418 | 19293 ft | 375 kts | 157° |
| 2026-04-25 00:43 | 5.83821 | -75.18420 | 19294 ft | 375 kts | 157° |
| 2026-04-25 00:44 | 5.81409 | -75.17423 | 19295 ft | 374 kts | 157° |
| 2026-04-25 00:44 | 5.79305 | -75.16556 | 19296 ft | 374 kts | 157° |
| 2026-04-25 00:44 | 5.76623 | -75.15448 | 19296 ft | 374 kts | 157° |
| 2026-04-25 00:44 | 5.74234 | -75.14462 | 19297 ft | 377 kts | 157° |
| 2026-04-25 00:45 | 5.71772 | -75.13446 | 19295 ft | 395 kts | 157° |
| 2026-04-25 00:45 | 5.69179 | -75.12375 | 19278 ft | 412 kts | 157° |
| 2026-04-25 00:45 | 5.66464 | -75.11255 | 19247 ft | 428 kts | 157° |
| 2026-04-25 00:45 | 5.63632 | -75.10088 | 19205 ft | 443 kts | 157° |
| 2026-04-25 00:46 | 5.60790 | -75.08916 | 19153 ft | 451 kts | 157° |
| 2026-04-25 00:46 | 5.57874 | -75.07714 | 19096 ft | 453 kts | 157° |
| 2026-04-25 00:46 | 5.52027 | -75.05305 | 19003 ft | 454 kts | 157° |
| 2026-04-25 00:47 | 5.49083 | -75.04091 | 18975 ft | 454 kts | 157° |
| 2026-04-25 00:47 | 5.46170 | -75.02891 | 18956 ft | 454 kts | 157° |
| 2026-04-25 00:47 | 5.43261 | -75.01692 | 18943 ft | 455 kts | 157° |
| 2026-04-25 00:47 | 5.40333 | -75.00486 | 18935 ft | 455 kts | 157° |
| 2026-04-25 00:48 | 5.37429 | -74.99287 | 18926 ft | 452 kts | 157° |
| 2026-04-25 00:48 | 5.34601 | -74.98096 | 18875 ft | 433 kts | 156° |
| 2026-04-25 00:48 | 5.31857 | -74.96930 | 18621 ft | 419 kts | 156° |
| 2026-04-25 00:48 | 5.29230 | -74.95812 | 18369 ft | 406 kts | 156° |
| 2026-04-25 00:49 | 5.26747 | -74.94757 | 18122 ft | 395 kts | 157° |
| 2026-04-25 00:49 | 5.24320 | -74.93728 | 17825 ft | 386 kts | 157° |
| 2026-04-25 00:49 | 5.21909 | -74.92596 | 17469 ft | 378 kts | 148° |
| 2026-04-25 00:49 | 5.19926 | -74.90933 | 17115 ft | 370 kts | 130° |
| 2026-04-25 00:50 | 5.18484 | -74.88798 | 16762 ft | 363 kts | 120° |
| 2026-04-25 00:50 | 5.17287 | -74.86639 | 16593 ft | 351 kts | 118° |
| 2026-04-25 00:50 | 5.16134 | -74.84528 | 16586 ft | 335 kts | 119° |
| 2026-04-25 00:50 | 5.14994 | -74.82523 | 16459 ft | 330 kts | 120° |
| 2026-04-25 00:51 | 5.13839 | -74.80538 | 16206 ft | 327 kts | 120° |
| 2026-04-25 00:51 | 5.12692 | -74.78572 | 15956 ft | 325 kts | 120° |
| 2026-04-25 00:51 | 5.11562 | -74.76630 | 15707 ft | 324 kts | 120° |
| 2026-04-25 00:51 | 5.10428 | -74.74678 | 15457 ft | 322 kts | 120° |
| 2026-04-25 00:52 | 5.09294 | -74.72721 | 15204 ft | 321 kts | 120° |
| 2026-04-25 00:52 | 5.08184 | -74.70805 | 14956 ft | 319 kts | 120° |
| 2026-04-25 00:52 | 5.07074 | -74.68887 | 14706 ft | 317 kts | 119° |
| 2026-04-25 00:52 | 5.05983 | -74.66999 | 14459 ft | 316 kts | 119° |
| 2026-04-25 00:53 | 5.04938 | -74.65192 | 14222 ft | 314 kts | 119° |
| 2026-04-25 00:53 | 5.03847 | -74.63306 | 13972 ft | 312 kts | 119° |
| 2026-04-25 00:53 | 5.02768 | -74.61440 | 13724 ft | 310 kts | 119° |
| 2026-04-25 00:53 | 5.01685 | -74.59567 | 13473 ft | 309 kts | 119° |
| 2026-04-25 00:54 | 5.00614 | -74.57715 | 13224 ft | 307 kts | 120° |
| 2026-04-25 00:54 | 4.99544 | -74.55865 | 12973 ft | 305 kts | 120° |
| 2026-04-25 00:54 | 4.98483 | -74.54031 | 12739 ft | 303 kts | 120° |
| 2026-04-25 00:54 | 4.97424 | -74.52200 | 12706 ft | 303 kts | 120° |
| 2026-04-25 00:55 | 4.96368 | -74.50375 | 12725 ft | 303 kts | 120° |
| 2026-04-25 00:55 | 4.95320 | -74.48565 | 12749 ft | 303 kts | 120° |
| 2026-04-25 00:55 | 4.94266 | -74.46743 | 12776 ft | 303 kts | 120° |
| 2026-04-25 00:55 | 4.93203 | -74.44909 | 12808 ft | 302 kts | 120° |
| 2026-04-25 00:56 | 4.92179 | -74.43141 | 12834 ft | 286 kts | 120° |
| 2026-04-25 00:56 | 4.91049 | -74.41531 | 12827 ft | 278 kts | 131° |
| 2026-04-25 00:56 | 4.89654 | -74.40154 | 12525 ft | 279 kts | 139° |
| 2026-04-25 00:56 | 4.88182 | -74.38917 | 12202 ft | 277 kts | 139° |
| 2026-04-25 00:57 | 4.86793 | -74.37597 | 11983 ft | 274 kts | 132° |
| 2026-04-25 00:57 | 4.85591 | -74.36150 | 11980 ft | 267 kts | 127° |
| 2026-04-25 00:57 | 4.84495 | -74.34714 | 11981 ft | 255 kts | 127° |
| 2026-04-25 00:57 | 4.83437 | -74.33306 | 11991 ft | 254 kts | 127° |
| 2026-04-25 00:58 | 4.82383 | -74.31898 | 11915 ft | 244 kts | 127° |
| 2026-04-25 00:58 | 4.81376 | -74.30556 | 11655 ft | 241 kts | 127° |
| 2026-04-25 00:58 | 4.80370 | -74.29223 | 11347 ft | 233 kts | 127° |
| 2026-04-25 00:58 | 4.79440 | -74.27994 | 11146 ft | 216 kts | 127° |
| 2026-04-25 00:59 | 4.78556 | -74.26829 | 10839 ft | 204 kts | 126° |
| 2026-04-25 00:59 | 4.77717 | -74.25721 | 10524 ft | 192 kts | 126° |
| 2026-04-25 00:59 | 4.76939 | -74.24695 | 10238 ft | 181 kts | 126° |
| 2026-04-25 00:59 | 4.76176 | -74.23687 | 10002 ft | 180 kts | 126° |
| 2026-04-25 01:00 | 4.75436 | -74.22709 | 9761 ft | 169 kts | 126° |
| 2026-04-25 01:00 | 4.74756 | -74.21811 | 9538 ft | 161 kts | 127° |
| 2026-04-25 01:00 | 4.74090 | -74.20932 | 9348 ft | 161 kts | 127° |
| 2026-04-25 01:00 | 4.73434 | -74.20064 | 9150 ft | 160 kts | 127° |
| 2026-04-25 01:01 | 4.72802 | -74.19230 | 8952 ft | 160 kts | 127° |
| 2026-04-25 01:01 | 4.72201 | -74.18437 | 8783 ft | 174 kts | 127° |
| 2026-04-25 01:01 | 4.71389 | -74.17362 | 9049 ft | 189 kts | 127° |
| 2026-04-25 01:01 | 4.70577 | -74.16293 | 9097 ft | 215 kts | 127° |
| 2026-04-25 01:02 | 4.69730 | -74.15175 | 9130 ft | 193 kts | 127° |
| 2026-04-25 01:02 | 4.68959 | -74.14156 | 9111 ft | 175 kts | 127° |
| 2026-04-25 01:02 | 4.68262 | -74.13248 | 9406 ft | 174 kts | 127° |
| 2026-04-25 01:02 | 4.67549 | -74.12317 | 9637 ft | 174 kts | 131° |
| 2026-04-25 01:03 | 4.66613 | -74.11632 | 9896 ft | 176 kts | 164° |
| 2026-04-25 01:03 | 4.65430 | -74.11725 | 10136 ft | 176 kts | 208° |
| 2026-04-25 01:03 | 4.64509 | -74.12471 | 10470 ft | 177 kts | 227° |
| 2026-04-25 01:03 | 4.63748 | -74.13436 | 10864 ft | 179 kts | 237° |
| 2026-04-25 01:04 | 4.63155 | -74.14537 | 11284 ft | 182 kts | 246° |
| 2026-04-25 01:04 | 4.62746 | -74.15743 | 11667 ft | 187 kts | 256° |
| 2026-04-25 01:04 | 4.62506 | -74.17059 | 11986 ft | 197 kts | 262° |
| 2026-04-25 01:04 | 4.62357 | -74.18471 | 12293 ft | 210 kts | 265° |
| 2026-04-25 01:05 | 4.62209 | -74.19951 | 12520 ft | 213 kts | 256° |
| 2026-04-25 01:05 | 4.61787 | -74.21390 | 12259 ft | 221 kts | 257° |
| 2026-04-25 01:05 | 4.61540 | -74.22965 | 11970 ft | 237 kts | 267° |
| 2026-04-25 01:05 | 4.61821 | -74.24586 | 11958 ft | 243 kts | 296° |
| 2026-04-25 01:06 | 4.62704 | -74.26073 | 11998 ft | 256 kts | 305° |
| 2026-04-25 01:06 | 4.63766 | -74.27537 | 12000 ft | 261 kts | 307° |
| 2026-04-25 01:06 | 4.64875 | -74.29009 | 12000 ft | 262 kts | 307° |
| 2026-04-25 01:06 | 4.65974 | -74.30454 | 12000 ft | 262 kts | 308° |
| 2026-04-25 01:07 | 4.67090 | -74.31920 | 12000 ft | 262 kts | 308° |
| 2026-04-25 01:07 | 4.68194 | -74.33369 | 12000 ft | 262 kts | 308° |
| 2026-04-25 01:07 | 4.69304 | -74.34825 | 12000 ft | 262 kts | 308° |
| 2026-04-25 01:07 | 4.70423 | -74.36294 | 12000 ft | 262 kts | 308° |
| 2026-04-25 01:08 | 4.71528 | -74.37742 | 12000 ft | 262 kts | 308° |
| 2026-04-25 01:08 | 4.72640 | -74.39200 | 12000 ft | 262 kts | 308° |
| 2026-04-25 01:08 | 4.73749 | -74.40653 | 11999 ft | 262 kts | 308° |
| 2026-04-25 01:08 | 4.74861 | -74.42110 | 11998 ft | 262 kts | 308° |
| 2026-04-25 01:09 | 4.75987 | -74.43585 | 12099 ft | 268 kts | 308° |
| 2026-04-25 01:09 | 4.77130 | -74.45081 | 12636 ft | 269 kts | 308° |
| 2026-04-25 01:09 | 4.78252 | -74.46552 | 12936 ft | 267 kts | 308° |
| 2026-04-25 01:09 | 4.79390 | -74.48045 | 12959 ft | 266 kts | 308° |
| 2026-04-25 01:10 | 4.80549 | -74.49445 | 12940 ft | 266 kts | 320° |
| 2026-04-25 01:10 | 4.82118 | -74.50381 | 12933 ft | 265 kts | 338° |
| 2026-04-25 01:10 | 4.83854 | -74.51029 | 12914 ft | 263 kts | 341° |
| 2026-04-25 01:10 | 4.85427 | -74.51856 | 12870 ft | 251 kts | 317° |
| 2026-04-25 01:11 | 4.86510 | -74.53238 | 12875 ft | 250 kts | 301° |
| 2026-04-25 01:11 | 4.87368 | -74.54750 | 12859 ft | 250 kts | 298° |
| 2026-04-25 01:11 | 4.88181 | -74.56288 | 12840 ft | 250 kts | 298° |
| 2026-04-25 01:11 | 4.89128 | -74.57708 | 12799 ft | 249 kts | 321° |
| 2026-04-25 01:12 | 4.90641 | -74.58404 | 12786 ft | 248 kts | 357° |
| 2026-04-25 01:12 | 4.92298 | -74.58136 | 12780 ft | 246 kts | 27° |
| 2026-04-25 01:12 | 4.93641 | -74.57101 | 12765 ft | 245 kts | 54° |
| 2026-04-25 01:12 | 4.94348 | -74.55545 | 12760 ft | 253 kts | 82° |
| 2026-04-25 01:13 | 4.94255 | -74.53933 | 12757 ft | 255 kts | 109° |
| 2026-04-25 01:13 | 4.93294 | -74.52406 | 12761 ft | 257 kts | 140° |
| 2026-04-25 01:13 | 4.91703 | -74.51610 | 12773 ft | 258 kts | 171° |
| 2026-04-25 01:13 | 4.89919 | -74.51508 | 12798 ft | 259 kts | 175° |
| 2026-04-25 01:14 | 4.88208 | -74.51016 | 12792 ft | 257 kts | 147° |
| 2026-04-25 01:14 | 4.86933 | -74.49788 | 12808 ft | 256 kts | 119° |
| 2026-04-25 01:14 | 4.86405 | -74.48164 | 12823 ft | 256 kts | 92° |
| 2026-04-25 01:14 | 4.86729 | -74.46413 | 12840 ft | 257 kts | 63° |
| 2026-04-25 01:15 | 4.87731 | -74.44941 | 12871 ft | 257 kts | 55° |
| 2026-04-25 01:15 | 4.88480 | -74.43329 | 12874 ft | 256 kts | 81° |
| 2026-04-25 01:15 | 4.88560 | -74.41537 | 12915 ft | 256 kts | 93° |
| 2026-04-25 01:15 | 4.88398 | -74.39766 | 12941 ft | 256 kts | 99° |
| 2026-04-25 01:16 | 4.87978 | -74.38057 | 12950 ft | 244 kts | 112° |
| 2026-04-25 01:16 | 4.87289 | -74.36563 | 12979 ft | 235 kts | 119° |
| 2026-04-25 01:16 | 4.86422 | -74.35169 | 12982 ft | 234 kts | 124° |
| 2026-04-25 01:16 | 4.85450 | -74.33830 | 12837 ft | 234 kts | 127° |
| 2026-04-25 01:17 | 4.84483 | -74.32558 | 12666 ft | 224 kts | 127° |
| 2026-04-25 01:17 | 4.83856 | -74.31738 | 12446 ft | 222 kts | 127° |
| 2026-04-25 01:17 | 4.82625 | -74.30123 | 12011 ft | 218 kts | 127° |
| 2026-04-25 01:17 | 4.81729 | -74.28941 | 11701 ft | 214 kts | 127° |
| 2026-04-25 01:18 | 4.80839 | -74.27766 | 11434 ft | 206 kts | 127° |
| 2026-04-25 01:18 | 4.79992 | -74.26646 | 11140 ft | 201 kts | 127° |
| 2026-04-25 01:18 | 4.79163 | -74.25549 | 10856 ft | 192 kts | 126° |
| 2026-04-25 01:18 | 4.78386 | -74.24522 | 10589 ft | 180 kts | 126° |
| 2026-04-25 01:19 | 4.77655 | -74.23556 | 10350 ft | 170 kts | 126° |
| 2026-04-25 01:19 | 4.76956 | -74.22632 | 10151 ft | 169 kts | 126° |
| 2026-04-25 01:19 | 4.76260 | -74.21711 | 9947 ft | 168 kts | 126° |
| 2026-04-25 01:19 | 4.75565 | -74.20792 | 9738 ft | 168 kts | 126° |
| 2026-04-25 01:20 | 4.74882 | -74.19889 | 9527 ft | 167 kts | 126° |
| 2026-04-25 01:20 | 4.74213 | -74.19006 | 9315 ft | 167 kts | 126° |
| 2026-04-25 01:20 | 4.73523 | -74.18094 | 9092 ft | 167 kts | 126° |
| 2026-04-25 01:20 | 4.72852 | -74.17207 | 8875 ft | 167 kts | 126° |
| 2026-04-25 01:21 | 4.72192 | -74.16335 | 8665 ft | 167 kts | 127° |
| 2026-04-25 01:21 | 4.71527 | -74.15459 | 8456 ft | 166 kts | 127° |
| 2026-04-25 01:21 | 4.70894 | -74.14617 | 8364 ft | 149 kts | 128° |
| 2026-04-25 01:21 | 4.70373 | -74.13929 | 8364 ft | 100 kts | 127° |
| 2026-04-25 01:22 | 4.70057 | -74.13516 | 8364 ft | 55 kts | 126° |
| 2026-04-25 01:22 | 4.69852 | -74.13323 | 8364 ft | 33 kts | 161° |
| 2026-04-25 01:22 | 4.69762 | -74.13303 | 8364 ft | 6 kts | 172° |
| 2026-04-25 01:22 | 4.69748 | -74.13301 | 8364 ft | 0 kts | 173° |
| 2026-04-25 01:24 | 4.69740 | -74.13300 | 8364 ft | 5 kts | 173° |
| 2026-04-25 01:24 | 4.69681 | -74.13319 | 8364 ft | 12 kts | 262° |
| 2026-04-25 01:24 | 4.69725 | -74.13401 | 8364 ft | 16 kts | 306° |
| 2026-04-25 01:25 | 4.69801 | -74.13503 | 8364 ft | 20 kts | 307° |
| 2026-04-25 01:25 | 4.69804 | -74.13605 | 8364 ft | 13 kts | 223° |
| 2026-04-25 01:25 | 4.69730 | -74.13635 | 8364 ft | 5 kts | 152° |
| 2026-04-25 01:25 | 4.69728 | -74.13635 | 8364 ft | 0 kts | 154° |
| 2026-04-25 01:26 | 4.69720 | -74.13635 | 8364 ft | 1 kts | 209° |
| 2026-04-25 01:26 | 4.69726 | -74.13647 | 8364 ft | 4 kts | 312° |
| 2026-04-25 01:27 | 4.69782 | -74.13715 | 8364 ft | 19 kts | 307° |
| 2026-04-25 01:27 | 4.69803 | -74.13779 | 8364 ft | 8 kts | 224° |
| 2026-04-25 01:27 | 4.69769 | -74.13805 | 8364 ft | 4 kts | 216° |
| 2026-04-25 01:28 | 4.69754 | -74.13816 | 8364 ft | 0 kts | 215° |